createdAt,value
2017-04-23T00:00:37.053Z,4.9
2017-04-23T00:01:17.709Z,4.86
2017-04-23T00:01:59.375Z,4.9
2017-04-23T00:02:39.908Z,4.86
2017-04-23T00:03:20.567Z,4.86
2017-04-23T00:04:01.218Z,4.87
2017-04-23T00:04:41.760Z,4.87
2017-04-23T00:05:26.931Z,4.89
2017-04-23T00:06:08.603Z,4.87
2017-04-23T00:06:49.361Z,4.82
2017-04-23T00:07:30.011Z,4.84
2017-04-23T00:08:10.764Z,4.84
2017-04-23T00:08:51.420Z,4.8
2017-04-23T00:09:32.170Z,4.84
2017-04-23T00:10:13.849Z,4.82
2017-04-23T00:10:54.605Z,4.78
2017-04-23T00:11:35.141Z,4.86
2017-04-23T00:12:16.853Z,4.8
2017-04-23T00:12:57.540Z,4.89
2017-04-23T00:13:39.281Z,4.87
2017-04-23T00:14:19.796Z,4.78
2017-04-23T00:15:02.453Z,4.86
2017-04-23T00:15:43.882Z,4.86
2017-04-23T00:16:26.174Z,4.82
2017-04-23T00:17:07.377Z,4.92
2017-04-23T00:17:48.760Z,4.8
2017-04-23T00:18:32.902Z,4.84
2017-04-23T00:19:16.577Z,4.89
2017-04-23T00:19:57.415Z,4.86
2017-04-23T00:20:39.549Z,4.9
2017-04-23T00:21:21.386Z,4.89
2017-04-23T00:22:03.177Z,4.8
2017-04-23T00:22:44.459Z,4.78
2017-04-23T00:23:25.877Z,4.75
2017-04-23T00:24:11.975Z,4.74
2017-04-23T00:24:58.792Z,4.73
2017-04-23T00:25:39.549Z,4.74
2017-04-23T00:26:20.269Z,4.73
2017-04-23T00:27:03.263Z,4.77
2017-04-23T00:27:43.919Z,4.73
2017-04-23T00:28:24.591Z,4.75
2017-04-23T00:29:05.220Z,4.77
2017-04-23T00:29:45.874Z,4.71
2017-04-23T00:30:29.678Z,4.71
2017-04-23T00:31:10.607Z,4.73
2017-04-23T00:31:53.268Z,4.77
2017-04-23T00:32:35.288Z,4.77
2017-04-23T00:33:15.940Z,4.74
2017-04-23T00:33:56.551Z,4.67
2017-04-23T00:34:37.114Z,4.74
2017-04-23T00:35:17.915Z,4.67
2017-04-23T00:35:58.705Z,4.73
2017-04-23T00:36:40.002Z,4.74
2017-04-23T00:37:20.829Z,4.75
2017-04-23T00:38:01.861Z,4.82
2017-04-23T00:38:42.863Z,4.77
2017-04-23T00:39:23.684Z,4.86
2017-04-23T00:40:04.282Z,4.84
2017-04-23T00:40:44.867Z,4.78
2017-04-23T00:41:25.413Z,4.8
2017-04-23T00:42:06.217Z,4.8
2017-04-23T00:42:46.720Z,4.8
2017-04-23T00:43:27.251Z,4.75
2017-04-23T00:44:11.492Z,4.75
2017-04-23T00:44:52.695Z,4.78
2017-04-23T00:45:33.261Z,4.82
2017-04-23T00:46:13.967Z,4.77
2017-04-23T00:46:54.578Z,4.8
2017-04-23T00:47:35.260Z,4.8
2017-04-23T00:48:15.892Z,4.78
2017-04-23T00:48:58.463Z,4.82
2017-04-23T00:49:39.061Z,4.84
2017-04-23T00:50:19.713Z,4.82
2017-04-23T00:51:00.373Z,4.74
2017-04-23T00:51:42.042Z,4.71
2017-04-23T00:52:22.678Z,4.73
2017-04-23T00:53:03.342Z,4.68
2017-04-23T00:53:43.981Z,4.71
2017-04-23T00:54:24.647Z,4.63
2017-04-23T00:55:05.297Z,4.67
2017-04-23T00:55:45.983Z,4.63
2017-04-23T00:56:26.602Z,4.66
2017-04-23T00:57:08.222Z,4.56
2017-04-23T00:57:48.811Z,4.62
2017-04-23T00:58:29.331Z,4.59
2017-04-23T00:59:09.932Z,4.6
2017-04-23T00:59:50.616Z,4.55
2017-04-23T01:00:31.228Z,4.6
2017-04-23T01:01:11.718Z,4.53
2017-04-23T01:01:52.335Z,4.56
2017-04-23T01:02:32.982Z,4.59
2017-04-23T01:03:13.487Z,4.59
2017-04-23T01:03:54.104Z,4.6
2017-04-23T01:04:34.671Z,4.59
2017-04-23T01:05:15.276Z,4.59
2017-04-23T01:05:55.803Z,4.63
2017-04-23T01:06:36.408Z,4.66
2017-04-23T01:07:17.071Z,4.63
2017-04-23T01:07:57.706Z,4.63
2017-04-23T01:08:38.368Z,4.58
2017-04-23T01:09:19.019Z,4.62
2017-04-23T01:09:59.661Z,4.62
2017-04-23T01:10:40.327Z,4.58
2017-04-23T01:11:20.979Z,4.6
2017-04-23T01:12:01.631Z,4.52
2017-04-23T01:12:42.272Z,4.59
2017-04-23T01:13:22.821Z,4.6
2017-04-23T01:14:03.483Z,4.56
2017-04-23T01:14:44.122Z,4.59
2017-04-23T01:15:24.782Z,4.58
2017-04-23T01:16:05.434Z,4.55
2017-04-23T01:16:46.033Z,4.58
2017-04-23T01:17:27.674Z,4.45
2017-04-23T01:18:08.160Z,4.45
2017-04-23T01:18:48.770Z,4.48
2017-04-23T01:19:29.369Z,4.45
2017-04-23T01:20:10.982Z,4.53
2017-04-23T01:20:51.525Z,4.42
2017-04-23T01:21:32.204Z,4.35
2017-04-23T01:22:12.829Z,4.38
2017-04-23T01:22:54.230Z,4.41
2017-04-23T01:23:34.919Z,4.35
2017-04-23T01:24:15.511Z,4.34
2017-04-23T01:24:56.040Z,4.32
2017-04-23T01:25:36.616Z,4.34
2017-04-23T01:26:17.264Z,4.28
2017-04-23T01:26:57.922Z,4.28
2017-04-23T01:27:38.566Z,4.32
2017-04-23T01:28:19.222Z,4.32
2017-04-23T01:28:59.875Z,4.23
2017-04-23T01:29:41.245Z,4.23
2017-04-23T01:30:21.901Z,4.16
2017-04-23T01:31:02.553Z,4.22
2017-04-23T01:31:43.094Z,4.17
2017-04-23T01:32:23.769Z,4.12
2017-04-23T01:33:04.356Z,4.13
2017-04-23T01:33:44.959Z,4.1
2017-04-23T01:34:25.477Z,4.16
2017-04-23T01:35:07.030Z,4.16
2017-04-23T01:35:47.692Z,4.12
2017-04-23T01:36:28.388Z,4.12
2017-04-23T01:37:09.042Z,4.06
2017-04-23T01:37:49.592Z,4.13
2017-04-23T01:38:30.246Z,4.1
2017-04-23T01:39:10.905Z,4.05
2017-04-23T01:39:51.551Z,4.04
2017-04-23T01:40:32.207Z,3.96
2017-04-23T01:41:12.861Z,4.02
2017-04-23T01:41:53.386Z,3.99
2017-04-23T01:42:43.642Z,3.99
2017-04-23T01:43:24.289Z,4.04
2017-04-23T01:44:04.953Z,3.96
2017-04-23T01:44:45.547Z,3.92
2017-04-23T01:45:26.109Z,3.96
2017-04-23T01:46:07.640Z,4.01
2017-04-23T01:46:48.303Z,3.94
2017-04-23T01:47:28.995Z,3.87
2017-04-23T01:48:09.657Z,4.02
2017-04-23T01:48:50.307Z,3.91
2017-04-23T01:49:30.953Z,3.86
2017-04-23T01:50:11.647Z,3.96
2017-04-23T01:50:52.272Z,3.91
2017-04-23T01:51:33.011Z,3.84
2017-04-23T01:52:13.715Z,3.95
2017-04-23T01:52:54.429Z,3.87
2017-04-23T01:53:34.957Z,3.86
2017-04-23T01:54:15.642Z,3.78
2017-04-23T01:54:56.324Z,3.84
2017-04-23T01:55:37.016Z,3.88
2017-04-23T01:56:17.573Z,3.86
2017-04-23T01:56:58.233Z,3.92
2017-04-23T01:57:38.937Z,3.87
2017-04-23T01:58:19.638Z,3.81
2017-04-23T01:59:00.178Z,3.8
2017-04-23T01:59:40.857Z,3.83
2017-04-23T02:00:21.662Z,3.83
2017-04-23T02:01:02.346Z,3.84
2017-04-23T02:01:42.930Z,3.68
2017-04-23T02:02:23.584Z,3.74
2017-04-23T02:03:04.253Z,3.73
2017-04-23T02:03:44.959Z,3.76
2017-04-23T02:04:25.507Z,3.69
2017-04-23T02:05:06.259Z,3.73
2017-04-23T02:05:46.985Z,3.73
2017-04-23T02:06:27.504Z,3.73
2017-04-23T02:07:08.157Z,3.7
2017-04-23T02:07:48.874Z,3.68
2017-04-23T02:08:29.432Z,3.66
2017-04-23T02:09:10.092Z,3.59
2017-04-23T02:09:50.733Z,3.63
2017-04-23T02:10:31.274Z,3.59
2017-04-23T02:11:11.944Z,3.53
2017-04-23T02:11:52.595Z,3.55
2017-04-23T02:12:33.133Z,3.53
2017-04-23T02:13:13.804Z,3.45
2017-04-23T02:13:54.441Z,3.51
2017-04-23T02:14:35.761Z,3.42
2017-04-23T02:15:16.370Z,3.42
2017-04-23T02:15:57.013Z,3.47
2017-04-23T02:16:37.560Z,3.45
2017-04-23T02:17:18.243Z,3.42
2017-04-23T02:17:58.874Z,3.37
2017-04-23T02:18:39.417Z,3.42
2017-04-23T02:19:20.085Z,3.37
2017-04-23T02:20:00.732Z,3.42
2017-04-23T02:20:41.240Z,3.42
2017-04-23T02:21:21.839Z,3.36
2017-04-23T02:22:02.481Z,3.37
2017-04-23T02:22:43.026Z,3.37
2017-04-23T02:23:23.609Z,3.26
2017-04-23T02:24:04.234Z,3.31
2017-04-23T02:24:44.746Z,3.31
2017-04-23T02:25:25.559Z,3.36
2017-04-23T02:26:06.199Z,3.32
2017-04-23T02:26:46.846Z,3.23
2017-04-23T02:27:27.539Z,3.29
2017-04-23T02:28:08.257Z,3.22
2017-04-23T02:28:48.910Z,3.29
2017-04-23T02:29:29.559Z,3.25
2017-04-23T02:30:10.240Z,3.26
2017-04-23T02:30:50.865Z,3.32
2017-04-23T02:31:31.378Z,3.31
2017-04-23T02:32:11.986Z,3.28
2017-04-23T02:32:52.622Z,3.31
2017-04-23T02:33:33.159Z,3.28
2017-04-23T02:34:13.856Z,3.37
2017-04-23T02:34:54.478Z,3.37
2017-04-23T02:35:35.008Z,3.41
2017-04-23T02:36:15.686Z,3.41
2017-04-23T02:36:56.337Z,3.32
2017-04-23T02:37:36.865Z,3.34
2017-04-23T02:38:17.459Z,3.32
2017-04-23T02:38:58.009Z,3.41
2017-04-23T02:39:38.666Z,3.41
2017-04-23T02:40:19.347Z,3.41
2017-04-23T02:40:59.949Z,3.37
2017-04-23T02:41:40.479Z,3.42
2017-04-23T02:42:21.154Z,3.45
2017-04-23T02:43:01.857Z,3.47
2017-04-23T02:43:42.454Z,3.4
2017-04-23T02:44:23.004Z,3.42
2017-04-23T02:45:03.673Z,3.48
2017-04-23T02:45:44.394Z,3.44
2017-04-23T02:46:25.070Z,3.56
2017-04-23T02:47:05.726Z,3.5
2017-04-23T02:47:46.377Z,3.5
2017-04-23T02:48:27.026Z,3.55
2017-04-23T02:49:07.683Z,3.47
2017-04-23T02:49:48.350Z,3.6
2017-04-23T02:50:28.984Z,3.59
2017-04-23T02:51:09.640Z,3.58
2017-04-23T02:51:50.189Z,3.65
2017-04-23T02:52:30.864Z,3.59
2017-04-23T02:53:11.523Z,3.63
2017-04-23T02:53:52.175Z,3.7
2017-04-23T02:54:32.868Z,3.69
2017-04-23T02:55:13.574Z,3.73
2017-04-23T02:55:54.237Z,3.76
2017-04-23T02:56:34.910Z,3.68
2017-04-23T02:57:15.571Z,3.76
2017-04-23T02:57:56.272Z,3.83
2017-04-23T02:58:36.791Z,3.83
2017-04-23T02:59:17.390Z,3.81
2017-04-23T02:59:58.079Z,3.81
2017-04-23T03:00:38.779Z,3.8
2017-04-23T03:01:19.295Z,3.84
2017-04-23T03:02:00.000Z,3.81
2017-04-23T03:02:40.702Z,3.73
2017-04-23T03:03:21.401Z,3.84
2017-04-23T03:04:01.947Z,3.87
2017-04-23T03:04:42.553Z,3.87
2017-04-23T03:05:23.206Z,3.86
2017-04-23T03:06:03.913Z,3.88
2017-04-23T03:06:44.428Z,3.84
2017-04-23T03:07:25.133Z,3.86
2017-04-23T03:08:05.822Z,3.84
2017-04-23T03:08:46.520Z,3.78
2017-04-23T03:09:27.059Z,3.87
2017-04-23T03:10:07.734Z,3.87
2017-04-23T03:10:48.433Z,3.87
2017-04-23T03:11:29.125Z,3.87
2017-04-23T03:12:09.699Z,3.81
2017-04-23T03:12:51.255Z,3.84
2017-04-23T03:13:31.963Z,3.84
2017-04-23T03:14:12.659Z,3.91
2017-04-23T03:14:53.188Z,3.87
2017-04-23T03:15:33.890Z,3.83
2017-04-23T03:16:14.577Z,3.81
2017-04-23T03:16:55.277Z,3.84
2017-04-23T03:17:35.924Z,3.86
2017-04-23T03:18:16.576Z,3.83
2017-04-23T03:18:57.227Z,3.84
2017-04-23T03:19:37.881Z,3.83
2017-04-23T03:20:18.541Z,3.81
2017-04-23T03:21:00.224Z,3.87
2017-04-23T03:21:40.865Z,3.87
2017-04-23T03:22:21.515Z,3.8
2017-04-23T03:23:02.089Z,3.86
2017-04-23T03:23:42.723Z,3.74
2017-04-23T03:24:23.373Z,3.78
2017-04-23T03:25:04.031Z,3.74
2017-04-23T03:25:44.686Z,3.66
2017-04-23T03:26:25.357Z,3.66
2017-04-23T03:27:05.883Z,3.69
2017-04-23T03:27:46.559Z,3.63
2017-04-23T03:28:27.265Z,3.68
2017-04-23T03:29:07.947Z,3.62
2017-04-23T03:29:48.469Z,3.59
2017-04-23T03:30:29.155Z,3.55
2017-04-23T03:31:09.858Z,3.58
2017-04-23T03:31:50.557Z,3.56
2017-04-23T03:32:31.271Z,3.51
2017-04-23T03:33:11.979Z,3.5
2017-04-23T03:33:52.692Z,3.53
2017-04-23T03:34:33.401Z,3.47
2017-04-23T03:35:14.052Z,3.42
2017-04-23T03:35:54.718Z,3.41
2017-04-23T03:36:35.364Z,3.4
2017-04-23T03:37:16.052Z,3.41
2017-04-23T03:37:56.765Z,3.48
2017-04-23T03:38:37.418Z,3.45
2017-04-23T03:39:18.094Z,3.42
2017-04-23T03:39:58.724Z,3.4
2017-04-23T03:40:39.402Z,3.37
2017-04-23T03:41:20.051Z,3.45
2017-04-23T03:42:00.681Z,3.41
2017-04-23T03:42:41.332Z,3.45
2017-04-23T03:43:21.987Z,3.45
2017-04-23T03:44:02.638Z,3.44
2017-04-23T03:44:43.291Z,3.42
2017-04-23T03:45:23.987Z,3.4
2017-04-23T03:46:04.707Z,3.47
2017-04-23T03:46:45.352Z,3.45
2017-04-23T03:47:26.014Z,3.44
2017-04-23T03:48:06.659Z,3.47
2017-04-23T03:48:47.349Z,3.44
2017-04-23T03:49:27.965Z,3.44
2017-04-23T03:50:08.617Z,3.45
2017-04-23T03:50:49.265Z,3.42
2017-04-23T03:51:29.923Z,3.56
2017-04-23T03:52:10.576Z,3.45
2017-04-23T03:52:51.239Z,3.51
2017-04-23T03:53:31.904Z,3.51
2017-04-23T03:54:12.548Z,3.51
2017-04-23T03:54:53.178Z,3.5
2017-04-23T03:55:34.868Z,3.51
2017-04-23T03:56:15.507Z,3.51
2017-04-23T03:56:56.169Z,3.51
2017-04-23T03:57:36.770Z,3.5
2017-04-23T03:58:17.462Z,3.58
2017-04-23T03:58:57.992Z,3.51
2017-04-23T03:59:38.671Z,3.53
2017-04-23T04:00:20.406Z,3.63
2017-04-23T04:01:01.308Z,3.56
2017-04-23T04:01:41.854Z,3.58
2017-04-23T04:02:22.566Z,3.55
2017-04-23T04:03:03.323Z,3.53
2017-04-23T04:03:44.017Z,3.59
2017-04-23T04:04:24.526Z,3.6
2017-04-23T04:05:06.149Z,3.55
2017-04-23T04:05:46.859Z,3.51
2017-04-23T04:06:27.556Z,3.55
2017-04-23T04:07:08.103Z,3.55
2017-04-23T04:07:48.784Z,3.53
2017-04-23T04:08:29.469Z,3.45
2017-04-23T04:09:10.161Z,3.48
2017-04-23T04:09:50.743Z,3.45
2017-04-23T04:10:31.379Z,3.42
2017-04-23T04:11:12.073Z,3.45
2017-04-23T04:11:52.774Z,3.34
2017-04-23T04:12:33.431Z,3.34
2017-04-23T04:13:14.084Z,3.41
2017-04-23T04:13:54.737Z,3.44
2017-04-23T04:14:35.391Z,3.41
2017-04-23T04:15:16.044Z,3.37
2017-04-23T04:15:56.691Z,3.32
2017-04-23T04:16:37.354Z,3.42
2017-04-23T04:17:17.997Z,3.37
2017-04-23T04:17:58.552Z,3.32
2017-04-23T04:18:39.201Z,3.32
2017-04-23T04:19:19.956Z,3.36
2017-04-23T04:20:00.609Z,3.37
2017-04-23T04:20:41.263Z,3.37
2017-04-23T04:21:21.915Z,3.37
2017-04-23T04:22:02.669Z,3.41
2017-04-23T04:22:43.323Z,3.37
2017-04-23T04:23:24.179Z,3.42
2017-04-23T04:24:04.834Z,3.42
2017-04-23T04:24:45.487Z,3.47
2017-04-23T04:25:26.140Z,3.44
2017-04-23T04:26:06.792Z,3.5
2017-04-23T04:26:47.445Z,3.51
2017-04-23T04:27:28.162Z,3.44
2017-04-23T04:28:08.871Z,3.55
2017-04-23T04:28:49.532Z,3.53
2017-04-23T04:29:30.200Z,3.55
2017-04-23T04:30:10.943Z,3.6
2017-04-23T04:30:51.699Z,3.68
2017-04-23T04:31:32.445Z,3.62
2017-04-23T04:32:13.097Z,3.68
2017-04-23T04:32:53.834Z,3.7
2017-04-23T04:33:34.353Z,3.76
2017-04-23T04:34:15.055Z,3.74
2017-04-23T04:34:55.791Z,3.84
2017-04-23T04:35:36.311Z,3.8
2017-04-23T04:36:17.026Z,3.84
2017-04-23T04:36:57.752Z,3.88
2017-04-23T04:37:38.402Z,3.81
2017-04-23T04:38:19.056Z,3.8
2017-04-23T04:38:59.812Z,3.83
2017-04-23T04:39:40.465Z,3.92
2017-04-23T04:40:21.120Z,3.92
2017-04-23T04:41:01.875Z,3.88
2017-04-23T04:41:42.630Z,3.88
2017-04-23T04:42:23.344Z,3.94
2017-04-23T04:43:04.054Z,4.01
2017-04-23T04:43:44.717Z,4.02
2017-04-23T04:44:26.062Z,3.98
2017-04-23T04:45:06.744Z,3.99
2017-04-23T04:45:47.487Z,3.92
2017-04-23T04:46:28.161Z,3.98
2017-04-23T04:47:08.913Z,4.06
2017-04-23T04:47:49.650Z,4.1
2017-04-23T04:48:30.209Z,4.12
2017-04-23T04:49:10.956Z,4.1
2017-04-23T04:49:51.710Z,4.12
2017-04-23T04:50:32.376Z,4.1
2017-04-23T04:51:13.013Z,4.13
2017-04-23T04:51:53.776Z,4.13
2017-04-23T04:52:34.432Z,4.19
2017-04-23T04:53:15.076Z,4.14
2017-04-23T04:53:55.783Z,4.24
2017-04-23T04:54:36.392Z,4.3
2017-04-23T04:55:16.932Z,4.24
2017-04-23T04:55:57.495Z,4.32
2017-04-23T04:56:38.033Z,4.26
2017-04-23T04:57:18.574Z,4.4
2017-04-23T04:57:59.078Z,4.38
2017-04-23T04:58:39.694Z,4.32
2017-04-23T04:59:20.328Z,4.31
2017-04-23T05:00:00.835Z,4.37
2017-04-23T05:00:41.449Z,4.34
2017-04-23T05:01:22.085Z,4.34
2017-04-23T05:02:02.595Z,4.4
2017-04-23T05:02:43.189Z,4.37
2017-04-23T05:03:23.813Z,4.4
2017-04-23T05:04:04.395Z,4.38
2017-04-23T05:04:44.922Z,4.34
2017-04-23T05:05:25.498Z,4.4
2017-04-23T05:06:06.115Z,4.4
2017-04-23T05:06:46.692Z,4.44
2017-04-23T05:07:27.233Z,4.48
2017-04-23T05:08:07.816Z,4.42
2017-04-23T05:08:48.373Z,4.44
2017-04-23T05:09:29.011Z,4.41
2017-04-23T05:10:09.559Z,4.45
2017-04-23T05:10:50.139Z,4.49
2017-04-23T05:11:30.787Z,4.55
2017-04-23T05:12:11.405Z,4.53
2017-04-23T05:12:51.926Z,4.6
2017-04-23T05:13:32.523Z,4.59
2017-04-23T05:14:13.153Z,4.68
2017-04-23T05:14:53.670Z,4.59
2017-04-23T05:15:34.270Z,4.67
2017-04-23T05:16:14.923Z,4.62
2017-04-23T05:16:55.458Z,4.68
2017-04-23T05:17:36.029Z,4.62
2017-04-23T05:18:16.575Z,4.68
2017-04-23T05:18:57.229Z,4.67
2017-04-23T05:19:37.788Z,4.71
2017-04-23T05:20:18.434Z,4.63
2017-04-23T05:20:58.998Z,4.66
2017-04-23T05:21:39.639Z,4.63
2017-04-23T05:22:20.184Z,4.73
2017-04-23T05:23:00.744Z,4.77
2017-04-23T05:23:41.312Z,4.75
2017-04-23T05:24:21.955Z,4.71
2017-04-23T05:25:02.619Z,4.71
2017-04-23T05:25:43.261Z,4.68
2017-04-23T05:26:23.913Z,4.71
2017-04-23T05:27:04.549Z,4.84
2017-04-23T05:27:45.101Z,4.86
2017-04-23T05:28:25.649Z,4.94
2017-04-23T05:29:06.325Z,5
2017-04-23T05:29:46.959Z,4.97
2017-04-23T05:30:27.510Z,4.99
2017-04-23T05:31:08.065Z,5.08
2017-04-23T05:31:48.634Z,5.02
2017-04-23T05:32:29.201Z,5.18
2017-04-23T05:33:09.796Z,5.21
2017-04-23T05:33:50.344Z,5.25
2017-04-23T05:34:30.918Z,5.23
2017-04-23T05:35:11.507Z,5.21
2017-04-23T05:35:52.115Z,5.25
2017-04-23T05:36:32.619Z,5.26
2017-04-23T05:37:13.218Z,5.25
2017-04-23T05:37:53.820Z,5.23
2017-04-23T05:38:34.410Z,5.26
2017-04-23T05:39:14.938Z,5.23
2017-04-23T05:39:55.523Z,5.18
2017-04-23T05:40:36.133Z,5.23
2017-04-23T05:41:16.724Z,5.26
2017-04-23T05:41:57.224Z,5.2
2017-04-23T05:42:37.833Z,5.26
2017-04-23T05:43:18.475Z,5.25
2017-04-23T05:43:59.005Z,5.3
2017-04-23T05:44:39.574Z,5.28
2017-04-23T05:45:20.223Z,5.43
2017-04-23T05:46:00.753Z,5.38
2017-04-23T05:46:41.341Z,5.39
2017-04-23T05:47:21.985Z,5.38
2017-04-23T05:48:02.635Z,5.47
2017-04-23T05:48:43.289Z,5.47
2017-04-23T05:49:23.940Z,5.5
2017-04-23T05:50:05.609Z,5.62
2017-04-23T05:50:47.186Z,5.56
2017-04-23T05:51:27.842Z,5.59
2017-04-23T05:52:08.387Z,5.64
2017-04-23T05:52:48.965Z,5.59
2017-04-23T05:53:29.591Z,5.56
2017-04-23T05:54:10.124Z,5.62
2017-04-23T05:54:50.710Z,5.62
2017-04-23T05:55:31.347Z,5.65
2017-04-23T05:56:11.853Z,5.71
2017-04-23T05:56:57.682Z,5.73
2017-04-23T05:57:38.322Z,5.72
2017-04-23T05:58:18.825Z,5.84
2017-04-23T05:59:00.460Z,5.86
2017-04-23T05:59:41.058Z,5.9
2017-04-23T06:00:21.751Z,5.93
2017-04-23T06:01:02.281Z,5.89
2017-04-23T06:01:42.890Z,5.93
2017-04-23T06:02:23.465Z,5.9
2017-04-23T06:03:04.117Z,6.04
2017-04-23T06:03:44.753Z,6.01
2017-04-23T06:04:25.321Z,6.12
2017-04-23T06:05:05.870Z,6.01
2017-04-23T06:05:46.524Z,6.04
2017-04-23T06:06:27.176Z,6.02
2017-04-23T06:07:07.832Z,6.17
2017-04-23T06:07:48.476Z,6.04
2017-04-23T06:08:29.104Z,6.01
2017-04-23T06:09:14.457Z,6.04
2017-04-23T06:09:55.108Z,5.98
2017-04-23T06:10:35.790Z,5.99
2017-04-23T06:11:17.479Z,5.93
2017-04-23T06:11:58.192Z,5.9
2017-04-23T06:12:38.836Z,5.94
2017-04-23T06:13:19.340Z,5.87
2017-04-23T06:14:01.971Z,5.98
2017-04-23T06:14:42.487Z,5.98
2017-04-23T06:15:23.017Z,6.04
2017-04-23T06:16:03.698Z,5.94
2017-04-23T06:16:44.200Z,5.99
2017-04-23T06:17:25.795Z,6.04
2017-04-23T06:18:06.436Z,6.04
2017-04-23T06:18:47.084Z,5.99
2017-04-23T06:19:27.753Z,5.93
2017-04-23T06:20:08.403Z,5.9
2017-04-23T06:20:50.186Z,5.91
2017-04-23T06:21:31.790Z,5.99
2017-04-23T06:22:12.381Z,5.91
2017-04-23T06:22:52.993Z,5.91
2017-04-23T06:23:34.605Z,5.99
2017-04-23T06:24:15.123Z,5.99
2017-04-23T06:24:56.795Z,5.99
2017-04-23T06:25:37.462Z,6.09
2017-04-23T06:26:18.039Z,6.07
2017-04-23T06:26:58.592Z,6.19
2017-04-23T06:27:39.163Z,6.39
2017-04-23T06:28:19.750Z,6.38
2017-04-23T06:29:00.452Z,6.52
2017-04-23T06:29:40.982Z,6.54
2017-04-23T06:30:21.567Z,6.56
2017-04-23T06:31:02.165Z,6.66
2017-04-23T06:31:42.770Z,6.62
2017-04-23T06:32:23.308Z,6.63
2017-04-23T06:33:08.516Z,6.77
2017-04-23T06:33:50.094Z,6.77
2017-04-23T06:34:30.691Z,6.74
2017-04-23T06:35:11.219Z,6.79
2017-04-23T06:35:51.797Z,6.72
2017-04-23T06:36:34.444Z,6.69
2017-04-23T06:37:15.042Z,6.7
2017-04-23T06:37:55.566Z,6.69
2017-04-23T06:38:36.177Z,6.69
2017-04-23T06:39:17.930Z,6.69
2017-04-23T06:39:58.468Z,6.64
2017-04-23T06:40:39.017Z,6.69
2017-04-23T06:41:19.672Z,6.54
2017-04-23T06:42:00.291Z,6.57
2017-04-23T06:42:40.982Z,6.52
2017-04-23T06:43:21.524Z,6.49
2017-04-23T06:44:03.123Z,6.51
2017-04-23T06:44:43.829Z,6.49
2017-04-23T06:45:24.512Z,6.54
2017-04-23T06:46:05.035Z,6.59
2017-04-23T06:46:46.662Z,6.62
2017-04-23T06:47:27.253Z,6.66
2017-04-23T06:48:07.908Z,6.7
2017-04-23T06:48:48.552Z,6.59
2017-04-23T06:49:29.218Z,6.66
2017-04-23T06:50:09.799Z,6.7
2017-04-23T06:50:52.398Z,6.81
2017-04-23T06:51:33.050Z,6.79
2017-04-23T06:52:13.701Z,6.81
2017-04-23T06:52:54.358Z,6.97
2017-04-23T06:53:36.036Z,7.02
2017-04-23T06:54:17.711Z,7.07
2017-04-23T06:54:58.379Z,7.13
2017-04-23T06:55:38.913Z,7.14
2017-04-23T06:56:20.542Z,7.2
2017-04-23T06:57:02.195Z,7.21
2017-04-23T06:57:42.748Z,7.25
2017-04-23T06:58:23.269Z,7.33
2017-04-23T06:59:03.843Z,7.31
2017-04-23T06:59:45.550Z,7.36
2017-04-23T07:00:26.220Z,7.43
2017-04-23T07:01:06.910Z,7.43
2017-04-23T07:01:47.468Z,7.4
2017-04-23T07:02:30.078Z,7.4
2017-04-23T07:03:10.728Z,7.54
2017-04-23T07:03:52.406Z,7.48
2017-04-23T07:04:33.037Z,7.54
2017-04-23T07:05:15.750Z,7.58
2017-04-23T07:05:56.393Z,7.58
2017-04-23T07:06:37.049Z,7.58
2017-04-23T07:07:17.693Z,7.61
2017-04-23T07:07:58.352Z,7.58
2017-04-23T07:08:39.007Z,7.66
2017-04-23T07:09:19.657Z,7.67
2017-04-23T07:10:05.229Z,7.72
2017-04-23T07:10:50.686Z,7.75
2017-04-23T07:11:31.344Z,7.72
2017-04-23T07:12:11.870Z,7.82
2017-04-23T07:12:52.516Z,7.8
2017-04-23T07:13:35.163Z,7.76
2017-04-23T07:14:16.839Z,7.66
2017-04-23T07:14:58.526Z,7.75
2017-04-23T07:15:40.226Z,7.58
2017-04-23T07:16:20.843Z,7.6
2017-04-23T07:17:03.451Z,7.6
2017-04-23T07:17:44.045Z,7.73
2017-04-23T07:18:24.635Z,7.7
2017-04-23T07:19:05.153Z,7.72
2017-04-23T07:19:46.778Z,7.61
2017-04-23T07:20:27.361Z,7.7
2017-04-23T07:21:13.696Z,7.67
2017-04-23T07:21:54.214Z,7.73
2017-04-23T07:22:34.865Z,7.69
2017-04-23T07:23:15.515Z,7.8
2017-04-23T07:23:57.178Z,7.97
2017-04-23T07:24:37.838Z,8
2017-04-23T07:25:18.488Z,8.06
2017-04-23T07:25:59.144Z,8.08
2017-04-23T07:26:39.794Z,8.09
2017-04-23T07:27:20.443Z,8.1
2017-04-23T07:28:03.096Z,8.13
2017-04-23T07:28:43.659Z,8.19
2017-04-23T07:29:24.325Z,8.23
2017-04-23T07:30:06.951Z,8.26
2017-04-23T07:30:52.154Z,8.15
2017-04-23T07:31:32.693Z,8.15
2017-04-23T07:32:13.294Z,8.16
2017-04-23T07:32:53.962Z,8.13
2017-04-23T07:33:39.495Z,8.12
2017-04-23T07:34:20.146Z,8.12
2017-04-23T07:35:00.799Z,8.03
2017-04-23T07:35:42.477Z,8.06
2017-04-23T07:36:23.146Z,8.01
2017-04-23T07:37:04.808Z,8.05
2017-04-23T07:37:46.417Z,8.05
2017-04-23T07:38:27.028Z,7.95
2017-04-23T07:39:07.538Z,7.98
2017-04-23T07:39:49.192Z,7.88
2017-04-23T07:40:30.776Z,7.91
2017-04-23T07:41:11.374Z,7.76
2017-04-23T07:41:51.880Z,7.7
2017-04-23T07:42:33.550Z,7.6
2017-04-23T07:43:14.191Z,7.56
2017-04-23T07:43:54.835Z,7.5
2017-04-23T07:44:35.469Z,7.42
2017-04-23T07:45:16.137Z,7.45
2017-04-23T07:45:57.799Z,7.36
2017-04-23T07:46:38.486Z,7.33
2017-04-23T07:47:19.310Z,7.38
2017-04-23T07:47:59.998Z,7.38
2017-04-23T07:48:40.620Z,7.25
2017-04-23T07:49:22.314Z,7.28
2017-04-23T07:50:02.940Z,7.25
2017-04-23T07:50:48.564Z,7.29
2017-04-23T07:51:29.194Z,7.23
2017-04-23T07:52:10.864Z,7.33
2017-04-23T07:52:52.508Z,7.25
2017-04-23T07:53:33.014Z,7.24
2017-04-23T07:54:13.638Z,7.14
2017-04-23T07:54:54.258Z,7.17
2017-04-23T07:55:34.769Z,7.23
2017-04-23T07:56:15.372Z,7.32
2017-04-23T07:56:57.041Z,7.24
2017-04-23T07:57:37.797Z,7.33
2017-04-23T07:58:20.436Z,7.38
2017-04-23T07:59:01.095Z,7.43
2017-04-23T07:59:41.701Z,7.53
2017-04-23T08:00:22.244Z,7.54
2017-04-23T08:01:02.928Z,7.53
2017-04-23T08:01:43.607Z,7.51
2017-04-23T08:02:24.206Z,7.54
2017-04-23T08:03:04.858Z,7.57
2017-04-23T08:03:45.517Z,7.6
2017-04-23T08:04:27.195Z,7.7
2017-04-23T08:05:09.887Z,7.8
2017-04-23T08:05:57.202Z,7.9
2017-04-23T08:06:38.874Z,7.93
2017-04-23T08:07:19.579Z,8
2017-04-23T08:08:00.284Z,8.06
2017-04-23T08:08:40.935Z,7.98
2017-04-23T08:09:21.587Z,8.03
2017-04-23T08:10:02.241Z,8.05
2017-04-23T08:10:42.893Z,8
2017-04-23T08:11:24.469Z,8.01
2017-04-23T08:12:05.124Z,8.01
2017-04-23T08:12:45.773Z,8.05
2017-04-23T08:13:26.289Z,8.03
2017-04-23T08:14:07.905Z,8.05
2017-04-23T08:14:49.497Z,8.16
2017-04-23T08:15:31.169Z,8.09
2017-04-23T08:16:11.849Z,8.2
2017-04-23T08:16:53.539Z,8.2
2017-04-23T08:17:39.077Z,8.34
2017-04-23T08:18:20.747Z,8.41
2017-04-23T08:19:01.471Z,8.45
2017-04-23T08:19:42.155Z,8.51
2017-04-23T08:20:23.853Z,8.49
2017-04-23T08:21:04.523Z,8.6
2017-04-23T08:21:46.224Z,8.76
2017-04-23T08:22:26.820Z,8.78
2017-04-23T08:23:07.503Z,8.78
2017-04-23T08:23:58.750Z,8.85
2017-04-23T08:24:39.260Z,9.04
2017-04-23T08:25:19.861Z,9.03
2017-04-23T08:26:00.459Z,9.18
2017-04-23T08:26:41.159Z,9.1
2017-04-23T08:27:21.673Z,9.19
2017-04-23T08:28:02.279Z,9.23
2017-04-23T08:28:42.964Z,9.25
2017-04-23T08:29:24.613Z,9.34
2017-04-23T08:30:05.206Z,9.43
2017-04-23T08:30:45.819Z,9.55
2017-04-23T08:31:26.470Z,9.54
2017-04-23T08:32:12.022Z,9.48
2017-04-23T08:32:52.684Z,9.58
2017-04-23T08:33:33.397Z,9.5
2017-04-23T08:34:14.004Z,9.64
2017-04-23T08:34:54.641Z,9.61
2017-04-23T08:35:35.312Z,9.65
2017-04-23T08:36:17.994Z,9.74
2017-04-23T08:36:58.676Z,9.64
2017-04-23T08:37:39.307Z,9.73
2017-04-23T08:38:19.996Z,9.77
2017-04-23T08:39:01.728Z,9.74
2017-04-23T08:39:42.263Z,9.84
2017-04-23T08:40:23.894Z,9.82
2017-04-23T08:41:17.352Z,9.87
2017-04-23T08:42:02.758Z,9.91
2017-04-23T08:42:43.277Z,9.92
2017-04-23T08:43:24.897Z,9.82
2017-04-23T08:44:10.561Z,9.79
2017-04-23T08:44:51.113Z,9.76
2017-04-23T08:45:32.797Z,9.66
2017-04-23T08:46:18.066Z,9.62
2017-04-23T08:46:59.754Z,9.65
2017-04-23T08:47:56.066Z,9.69
2017-04-23T08:48:43.581Z,9.76
2017-04-23T08:49:24.219Z,9.8
2017-04-23T08:50:04.893Z,9.83
2017-04-23T08:50:47.586Z,9.89
2017-04-23T08:51:28.160Z,9.94
2017-04-23T08:52:10.832Z,10.1
2017-04-23T08:52:52.491Z,10.15
2017-04-23T08:53:33.060Z,10.28
2017-04-23T08:54:14.742Z,10.19
2017-04-23T08:55:00.205Z,10.2
2017-04-23T08:55:40.742Z,10.3
2017-04-23T08:56:21.403Z,10.34
2017-04-23T08:57:02.037Z,10.42
2017-04-23T08:57:42.565Z,10.42
2017-04-23T08:58:23.161Z,10.54
2017-04-23T08:59:03.754Z,10.53
2017-04-23T08:59:45.374Z,10.59
2017-04-23T09:00:25.895Z,10.53
2017-04-23T09:01:06.481Z,10.64
2017-04-23T09:01:48.099Z,10.68
2017-04-23T09:02:33.715Z,10.59
2017-04-23T09:03:14.242Z,10.56
2017-04-23T09:03:54.824Z,10.48
2017-04-23T09:04:35.351Z,10.53
2017-04-23T09:05:16.075Z,10.54
2017-04-23T09:05:56.675Z,10.41
2017-04-23T09:06:37.197Z,10.38
2017-04-23T09:07:18.831Z,10.34